Time;durP1;ratioP1;P1;durP2;ratioP2;P2;SDS_P1;SDS_P2;PMS_P1;PMS_P2;Temp;Humidity;BMP_temperature;BMP_pressure;BME280_temperature;BME280_humidity;BME280_pressure;Samples;Min_cycle;Max_cycle;Signal;HPM_P1;HPM_P2
2022/10/27 00:00:27;;;;;;;5.70;4.30;;;;;;;20.52;65.29;101041.63;4952712;28;20179;-65
2022/10/27 00:02:52;;;;;;;5.87;3.87;;;;;;;20.54;65.57;101056.44;4949963;29;20183;-65
2022/10/27 00:05:18;;;;;;;6.00;3.90;;;;;;;20.53;65.40;101049.00;4933419;29;20210;-66
2022/10/27 00:07:43;;;;;;;6.30;4.10;;;;;;;20.54;65.49;101041.25;4932210;29;20228;-66
2022/10/27 00:10:09;;;;;;;10.90;4.37;;;;;;;20.53;65.70;101040.41;4932202;29;20168;-65
2022/10/27 00:12:34;;;;;;;5.80;3.90;;;;;;;20.53;65.90;101030.97;4943019;29;20187;-65
2022/10/27 00:15:00;;;;;;;6.37;4.30;;;;;;;20.53;65.88;101036.72;4952403;28;20211;-65
2022/10/27 00:17:26;;;;;;;4.83;3.90;;;;;;;20.54;65.58;101032.63;4951201;29;20191;-65
2022/10/27 00:19:55;;;;;;;6.50;3.90;;;;;;;20.52;65.54;101035.88;4951191;29;20198;-66
2022/10/27 00:22:20;;;;;;;7.70;4.40;;;;;;;20.52;65.48;101046.53;4951059;29;20430;-65
2022/10/27 00:24:46;;;;;;;6.00;3.80;;;;;;;20.50;65.51;101049.78;4937600;29;20439;-65
2022/10/27 00:27:12;;;;;;;6.23;3.80;;;;;;;20.52;65.75;101050.22;4954615;29;20186;-65
2022/10/27 00:29:37;;;;;;;5.73;4.03;;;;;;;20.50;65.54;101055.53;4955840;28;20422;-65
2022/10/27 00:32:03;;;;;;;7.00;4.20;;;;;;;20.52;65.75;101064.56;4954377;29;20198;-65
2022/10/27 00:34:28;;;;;;;5.60;3.87;;;;;;;20.53;65.51;101059.66;4954267;29;20222;-65
2022/10/27 00:36:53;;;;;;;5.43;3.67;;;;;;;20.53;65.88;101062.53;4955793;28;20180;-65
2022/10/27 00:39:19;;;;;;;6.10;4.10;;;;;;;20.49;65.78;101065.34;4955984;28;20671;-65
2022/10/27 00:41:44;;;;;;;7.87;4.00;;;;;;;20.49;66.10;101065.34;4955643;28;20167;-66
2022/10/27 00:44:30;;;;;;;8.13;4.40;;;;;;;20.53;65.96;101074.00;4954264;29;20179;-65
2022/10/27 00:46:57;;;;;;;6.90;4.00;;;;;;;20.49;66.01;101067.34;4954363;29;20577;-65
2022/10/27 00:49:28;;;;;;;6.17;3.77;;;;;;;20.49;65.95;101059.59;4938546;29;20778;-65
2022/10/27 00:51:58;;;;;;;7.43;3.63;;;;;;;20.48;66.07;101063.69;4954171;29;20411;-65
2022/10/27 00:54:24;;;;;;;8.50;4.13;;;;;;;20.48;66.19;101069.41;4952524;29;20537;-65
2022/10/27 00:56:50;;;;;;;6.77;3.60;;;;;;;20.50;65.80;101064.13;4952463;29;20407;-65
2022/10/27 00:59:15;;;;;;;10.87;4.20;;;;;;;20.49;66.39;101058.75;4936792;29;20907;-66
2022/10/27 01:01:41;;;;;;;5.00;3.50;;;;;;;20.49;66.29;101071.06;4955037;29;20419;-65
2022/10/27 01:04:06;;;;;;;5.40;3.90;;;;;;;20.48;66.19;101059.97;4949723;28;20211;-65
2022/10/27 01:06:32;;;;;;;5.87;3.50;;;;;;;20.46;65.83;101054.59;4953958;28;20163;-65
2022/10/27 01:08:57;;;;;;;5.10;3.87;;;;;;;20.47;66.11;101050.53;4943566;28;20572;-65
2022/10/27 01:11:23;;;;;;;5.70;3.67;;;;;;;20.47;66.47;101049.72;4956926;28;20189;-65
2022/10/27 01:13:48;;;;;;;6.63;4.33;;;;;;;20.49;66.08;101053.03;4957042;28;20210;-65
2022/10/27 01:16:21;;;;;;;4.40;3.13;;;;;;;20.47;66.23;101056.25;4973219;28;20167;-65
2022/10/27 01:18:56;;;;;;;4.93;3.30;;;;;;;20.46;66.10;101048.88;4976933;28;20634;-65
2022/10/27 01:21:49;;;;;;;5.20;4.03;;;;;;;20.46;66.15;101048.88;4956729;28;20496;-65
2022/10/27 01:24:39;;;;;;;6.00;3.60;;;;;;;20.46;65.53;101056.66;4959510;28;20469;-65
2022/10/27 01:27:07;;;;;;;6.20;3.73;;;;;;;20.47;66.12;101047.66;4957804;28;20833;-65
2022/10/27 01:30:10;;;;;;;5.87;3.63;;;;;;;20.46;66.03;101040.25;4972736;28;20402;-65
2022/10/27 01:33:12;;;;;;;5.17;3.30;;;;;;;20.45;66.00;101034.88;4974112;28;20402;-65
2022/10/27 01:35:48;;;;;;;6.13;3.53;;;;;;;20.44;66.09;101028.34;4969949;28;20453;-65
2022/10/27 01:38:28;;;;;;;4.90;3.50;;;;;;;20.44;66.03;101036.94;4988058;28;20445;-65
2022/10/27 01:41:08;;;;;;;7.50;3.87;;;;;;;20.43;66.27;101028.72;4986995;28;20413;-65
2022/10/27 01:43:34;;;;;;;11.70;3.90;;;;;;;20.45;66.47;101027.13;4942062;28;20418;-65
2022/10/27 01:46:00;;;;;;;5.23;3.33;;;;;;;20.46;66.23;101034.53;4956585;28;20433;-65
2022/10/27 01:48:26;;;;;;;3.73;2.90;;;;;;;20.45;66.30;101038.59;4939556;29;20190;-65
2022/10/27 01:50:51;;;;;;;6.37;3.40;;;;;;;20.46;66.50;101033.72;4937348;29;20769;-66
2022/10/27 01:53:17;;;;;;;7.27;3.77;;;;;;;20.45;66.12;101032.88;4954568;29;20226;-65
2022/10/27 01:56:03;;;;;;;4.17;3.40;;;;;;;20.45;66.34;101046.38;4954561;29;20269;-65
2022/10/27 01:58:50;;;;;;;5.40;3.13;;;;;;;20.43;66.80;101038.16;4954158;29;20179;-65
2022/10/27 02:01:38;;;;;;;5.03;3.50;;;;;;;20.45;66.34;101050.06;4952860;29;20489;-65
2022/10/27 02:04:34;;;;;;;8.10;3.67;;;;;;;20.43;66.45;101043.06;4968254;28;20457;-65
2022/10/27 02:07:04;;;;;;;4.87;3.23;;;;;;;20.43;66.79;101038.16;4953985;29;20458;-65
2022/10/27 02:09:45;;;;;;;5.43;3.37;;;;;;;20.41;66.31;101023.34;4968639;28;20407;-65
2022/10/27 02:12:30;;;;;;;5.03;3.43;;;;;;;20.42;66.58;101025.00;4952624;29;20942;-65
2022/10/27 02:14:57;;;;;;;4.03;2.80;;;;;;;20.43;66.50;101025.84;4935335;29;20455;-65
2022/10/27 02:17:22;;;;;;;7.40;3.50;;;;;;;20.40;66.37;101021.69;4955612;28;20905;-65
2022/10/27 02:19:48;;;;;;;5.37;3.30;;;;;;;20.42;66.51;101019.25;4955212;28;20434;-65
2022/10/27 02:22:13;;;;;;;5.77;3.40;;;;;;;20.41;66.76;101023.34;4955703;28;20166;-66
2022/10/27 02:24:39;;;;;;;4.00;2.70;;;;;;;20.42;66.83;101029.94;4955714;28;20170;-65
2022/10/27 02:27:32;;;;;;;4.77;3.30;;;;;;;20.41;66.66;101026.22;4973065;28;20174;-65
2022/10/27 02:29:57;;;;;;;5.50;3.90;;;;;;;20.42;66.48;101035.66;4943239;28;20205;-65
2022/10/27 02:32:23;;;;;;;4.97;2.90;;;;;;;20.42;66.74;101041.41;4939624;28;20441;-65
2022/10/27 02:34:49;;;;;;;4.97;2.90;;;;;;;20.41;66.42;101052.03;4955586;28;20198;-65
2022/10/27 02:37:25;;;;;;;4.47;3.27;;;;;;;20.40;66.69;101056.09;4939557;28;20178;-65
2022/10/27 02:39:51;;;;;;;5.40;3.20;;;;;;;20.40;66.55;101050.38;4955800;28;20166;-65
2022/10/27 02:42:16;;;;;;;3.90;2.90;;;;;;;20.39;66.95;101065.94;4955510;28;20401;-66
2022/10/27 02:44:42;;;;;;;4.83;3.50;;;;;;;20.39;66.62;101059.34;4972654;28;20181;-65
2022/10/27 02:47:07;;;;;;;4.37;3.40;;;;;;;20.38;66.76;101052.81;4955172;28;20198;-65
2022/10/27 02:49:32;;;;;;;5.53;3.20;;;;;;;20.38;66.81;101057.69;4951723;29;20222;-65
2022/10/27 02:51:58;;;;;;;4.60;3.30;;;;;;;20.39;66.64;101057.31;4952974;29;20178;-66
2022/10/27 02:54:23;;;;;;;5.87;3.43;;;;;;;20.39;66.74;101048.72;4951143;29;20203;-66
2022/10/27 02:56:49;;;;;;;4.43;3.10;;;;;;;20.39;66.87;101045.00;4951299;29;20318;-65
2022/10/27 02:59:14;;;;;;;4.23;2.73;;;;;;;20.39;66.67;101037.25;4951398;29;20806;-65
2022/10/27 03:01:40;;;;;;;5.00;3.23;;;;;;;20.37;66.46;101044.56;4952544;28;20171;-66
2022/10/27 03:04:05;;;;;;;3.67;2.73;;;;;;;20.36;66.67;101037.97;4964060;28;20191;-65
2022/10/27 03:06:31;;;;;;;3.80;2.90;;;;;;;20.39;66.76;101042.13;4974655;28;20182;-65
2022/10/27 03:08:56;;;;;;;5.60;3.40;;;;;;;20.38;66.55;101049.94;4971927;28;20382;-65
2022/10/27 03:11:22;;;;;;;4.20;3.13;;;;;;;20.39;66.53;101054.47;4972442;28;20540;-65
2022/10/27 03:13:47;;;;;;;4.93;2.93;;;;;;;20.40;66.70;101038.91;4972277;28;20206;-65
2022/10/27 03:16:12;;;;;;;4.70;3.33;;;;;;;20.38;66.76;101049.94;4972431;28;20170;-65
2022/10/27 03:18:38;;;;;;;5.00;2.97;;;;;;;20.39;66.63;101053.63;4965681;28;20258;-66
2022/10/27 03:21:03;;;;;;;6.80;3.43;;;;;;;20.40;66.56;101053.25;4987307;28;20183;-65
2022/10/27 03:23:29;;;;;;;6.63;3.47;;;;;;;20.39;66.39;101059.34;4986953;28;20182;-65
2022/10/27 03:25:54;;;;;;;3.90;2.70;;;;;;;20.37;66.68;101047.44;4972467;28;20178;-65
2022/10/27 03:28:20;;;;;;;4.80;2.93;;;;;;;20.38;66.31;101055.66;4982338;28;20186;-65
2022/10/27 03:30:45;;;;;;;6.40;3.17;;;;;;;20.38;66.53;101058.53;4956896;28;20186;-65
2022/10/27 03:33:10;;;;;;;4.23;3.10;;;;;;;20.36;66.69;101054.38;4939070;28;20190;-65
2022/10/27 03:35:36;;;;;;;4.50;2.97;;;;;;;20.38;67.11;101052.81;4972076;28;20213;-65
2022/10/27 03:38:01;;;;;;;5.00;3.50;;;;;;;20.40;66.48;101061.84;4972017;28;20170;-66
2022/10/27 03:40:27;;;;;;;3.97;2.80;;;;;;;20.38;66.54;101055.66;4941005;29;20187;-65
2022/10/27 03:42:57;;;;;;;4.47;3.13;;;;;;;20.36;66.78;101060.13;4935789;29;20167;-65
2022/10/27 03:45:23;;;;;;;5.03;3.13;;;;;;;20.37;66.53;101050.31;4936210;29;20557;-65
2022/10/27 03:47:50;;;;;;;5.20;3.53;;;;;;;20.37;67.02;101048.25;4958248;28;20875;-66
2022/10/27 03:50:15;;;;;;;5.83;3.03;;;;;;;20.36;66.58;101043.72;4919818;29;20434;-65
2022/10/27 03:52:41;;;;;;;4.50;3.23;;;;;;;20.40;66.71;101043.78;4935300;29;20427;-66
2022/10/27 03:55:06;;;;;;;4.60;3.40;;;;;;;20.37;66.57;101056.84;4949855;28;20670;-65
2022/10/27 03:57:32;;;;;;;4.80;3.20;;;;;;;20.38;66.54;101063.44;4954724;28;20774;-65
2022/10/27 03:59:57;;;;;;;3.50;2.50;;;;;;;20.37;66.75;101053.97;4973682;28;20540;-65
2022/10/27 04:02:23;;;;;;;2.97;2.47;;;;;;;20.38;66.60;101044.19;4975631;28;20634;-65
2022/10/27 04:04:48;;;;;;;4.20;3.13;;;;;;;20.37;66.47;101051.13;4975390;28;20678;-65
2022/10/27 04:07:13;;;;;;;3.93;2.70;;;;;;;20.36;66.53;101049.47;4958175;28;20599;-66
2022/10/27 04:09:39;;;;;;;7.70;3.00;;;;;;;20.38;66.58;101047.06;4942150;28;20185;-65
2022/10/27 04:12:04;;;;;;;4.70;3.10;;;;;;;20.39;66.96;101045.00;4958305;28;20540;-65
2022/10/27 04:14:30;;;;;;;5.33;3.13;;;;;;;20.37;66.63;101041.69;4975436;28;20572;-65
2022/10/27 04:16:55;;;;;;;4.00;2.90;;;;;;;20.37;66.77;101042.50;4958374;28;20185;-66
2022/10/27 04:19:21;;;;;;;4.37;2.90;;;;;;;20.38;66.79;101035.59;4975082;28;20197;-65
2022/10/27 04:21:46;;;;;;;4.73;2.90;;;;;;;20.38;66.64;101032.72;4957932;28;20352;-66
2022/10/27 04:24:12;;;;;;;3.80;2.90;;;;;;;20.38;66.61;101037.63;4975286;28;20654;-65
2022/10/27 04:26:38;;;;;;;4.50;3.00;;;;;;;20.36;66.68;101032.25;4957524;28;20194;-65
2022/10/27 04:29:03;;;;;;;3.70;2.87;;;;;;;20.37;66.44;101035.97;4938601;29;20270;-65
2022/10/27 04:31:28;;;;;;;3.97;2.87;;;;;;;20.39;66.64;101028.63;4938684;29;20627;-65
2022/10/27 04:33:54;;;;;;;3.87;2.90;;;;;;;20.38;66.85;101024.13;4954486;29;20605;-65
2022/10/27 04:36:19;;;;;;;4.17;2.93;;;;;;;20.37;66.37;101027.34;4955875;29;20577;-65
2022/10/27 04:38:48;;;;;;;4.73;2.73;;;;;;;20.35;66.86;101033.47;4955802;29;20489;-65
2022/10/27 04:41:14;;;;;;;3.63;2.77;;;;;;;20.36;66.79;101031.44;4938575;29;20175;-65
2022/10/27 04:43:39;;;;;;;3.50;2.53;;;;;;;20.38;66.95;101032.72;4954377;29;20430;-65
2022/10/27 04:46:04;;;;;;;4.47;3.10;;;;;;;20.37;66.47;101033.91;4955750;29;20171;-65
2022/10/27 04:48:30;;;;;;;4.97;2.83;;;;;;;20.37;66.73;101033.91;4957594;28;20209;-65
2022/10/27 04:50:55;;;;;;;3.80;2.80;;;;;;;20.37;66.54;101028.16;4957692;28;20521;-66
2022/10/27 04:53:21;;;;;;;3.20;2.20;;;;;;;20.37;66.84;101033.91;4974893;28;20583;-65
2022/10/27 04:55:46;;;;;;;4.40;3.00;;;;;;;20.37;66.62;101033.91;4974738;28;20662;-65
2022/10/27 04:58:12;;;;;;;3.93;3.10;;;;;;;20.37;66.68;101036.78;4957147;28;20622;-65
2022/10/27 05:00:37;;;;;;;3.90;2.60;;;;;;;20.38;66.54;101040.47;4956339;28;20626;-65
2022/10/27 05:03:03;;;;;;;3.17;2.50;;;;;;;20.38;66.46;101052.81;4970728;28;20175;-65
2022/10/27 05:05:28;;;;;;;3.93;2.70;;;;;;;20.41;66.36;101051.22;4964776;28;20214;-65
2022/10/27 05:07:59;;;;;;;4.20;2.70;;;;;;;20.38;66.44;101052.81;4952854;29;21165;-66
2022/10/27 05:10:25;;;;;;;3.87;2.60;;;;;;;20.37;66.50;101047.44;4967728;28;20194;-66
2022/10/27 05:12:50;;;;;;;3.40;2.40;;;;;;;20.40;66.45;101056.09;4955350;28;20419;-65
2022/10/27 05:15:16;;;;;;;4.07;2.70;;;;;;;20.38;66.64;101054.81;4954694;28;20279;-65
2022/10/27 05:17:41;;;;;;;3.60;2.50;;;;;;;20.39;66.73;101048.72;4954128;28;20643;-65
2022/10/27 05:20:07;;;;;;;4.13;2.90;;;;;;;20.39;66.46;101059.34;4950497;29;20628;-65
2022/10/27 05:22:33;;;;;;;4.70;2.70;;;;;;;20.39;66.80;101067.94;4936201;29;20223;-65
2022/10/27 05:24:58;;;;;;;4.10;3.07;;;;;;;20.40;66.55;101064.72;4934681;29;20408;-65
2022/10/27 05:27:24;;;;;;;3.20;2.33;;;;;;;20.40;66.95;101061.84;4934697;29;20180;-65
2022/10/27 05:29:49;;;;;;;4.00;2.57;;;;;;;20.38;66.69;101058.53;4935867;29;20164;-65
2022/10/27 05:32:15;;;;;;;4.13;3.20;;;;;;;20.38;66.83;101055.66;4949722;29;20202;-65
2022/10/27 05:34:40;;;;;;;3.63;2.70;;;;;;;20.39;66.72;101051.59;4954577;28;20207;-65
2022/10/27 05:37:06;;;;;;;4.77;2.60;;;;;;;20.39;66.53;101036.41;4956056;28;20190;-65
2022/10/27 05:39:31;;;;;;;3.27;2.57;;;;;;;20.38;66.70;101035.59;4985591;28;20182;-66
2022/10/27 05:41:57;;;;;;;4.33;3.00;;;;;;;20.40;66.59;101035.19;4957128;28;20182;-65
2022/10/27 05:44:22;;;;;;;4.53;2.77;;;;;;;20.38;66.89;101034.75;4954734;28;20159;-65
2022/10/27 05:46:48;;;;;;;3.70;2.60;;;;;;;20.40;67.09;101040.94;4952958;29;20182;-65
2022/10/27 05:49:13;;;;;;;3.27;2.20;;;;;;;20.40;66.45;101044.63;4952974;29;20187;-65
2022/10/27 05:51:38;;;;;;;2.83;2.20;;;;;;;20.40;66.73;101043.78;4954202;29;20171;-65
2022/10/27 05:54:04;;;;;;;3.27;2.57;;;;;;;20.39;66.65;101042.13;4953278;29;20207;-65
2022/10/27 05:56:29;;;;;;;3.50;2.40;;;;;;;20.40;66.61;101041.78;4951922;29;20171;-65
2022/10/27 05:58:55;;;;;;;3.37;2.53;;;;;;;20.37;66.65;101039.63;4953299;29;20179;-65
2022/10/27 06:01:20;;;;;;;5.33;3.23;;;;;;;20.40;66.60;101044.63;4935817;29;20199;-65
2022/10/27 06:03:46;;;;;;;3.63;2.50;;;;;;;20.39;66.80;101042.13;4944589;28;20549;-65
2022/10/27 06:06:11;;;;;;;3.30;2.30;;;;;;;20.40;66.54;101043.78;4933784;29;20594;-65
2022/10/27 06:08:36;;;;;;;4.23;2.90;;;;;;;20.41;66.59;101045.47;4951326;29;20238;-65
2022/10/27 06:11:02;;;;;;;3.60;2.30;;;;;;;20.39;66.42;101042.13;4934746;29;20647;-65
2022/10/27 06:13:28;;;;;;;3.90;2.70;;;;;;;20.40;66.60;101038.06;4951791;29;20548;-65
2022/10/27 06:15:54;;;;;;;3.80;2.67;;;;;;;20.38;66.69;101038.47;4939937;28;20210;-65
2022/10/27 06:18:20;;;;;;;3.77;2.60;;;;;;;20.37;66.40;101042.50;4939791;28;20436;-65
2022/10/27 06:20:45;;;;;;;5.10;2.87;;;;;;;20.40;66.51;101050.38;4972950;28;20980;-65
2022/10/27 06:23:11;;;;;;;3.47;2.20;;;;;;;20.40;66.54;101052.41;4971002;28;20186;-65
2022/10/27 06:25:36;;;;;;;3.23;2.27;;;;;;;20.40;66.68;101049.53;4953721;28;20266;-65
2022/10/27 06:28:02;;;;;;;3.83;2.53;;;;;;;20.40;66.81;101040.94;4954753;28;20504;-65
2022/10/27 06:30:27;;;;;;;3.87;2.67;;;;;;;20.39;67.03;101047.88;4954346;28;20194;-65
2022/10/27 06:32:53;;;;;;;3.80;2.60;;;;;;;20.41;66.83;101071.28;4953188;28;20187;-65
2022/10/27 06:35:18;;;;;;;3.37;2.30;;;;;;;20.38;66.74;101066.28;4939427;28;20198;-65
2022/10/27 06:37:44;;;;;;;3.70;2.63;;;;;;;20.39;66.93;101065.94;4950818;28;20241;-65
2022/10/27 06:40:10;;;;;;;3.47;3.00;;;;;;;20.40;66.51;101067.59;4952891;28;20199;-65
2022/10/27 06:42:36;;;;;;;2.63;1.80;;;;;;;20.39;66.85;101070.81;4961192;28;20265;-65
2022/10/27 06:45:02;;;;;;;3.70;2.50;;;;;;;20.40;66.74;101081.06;4965139;28;20961;-65
2022/10/27 06:47:28;;;;;;;3.27;2.40;;;;;;;20.38;66.73;101087.22;4943644;28;20258;-66
2022/10/27 06:49:53;;;;;;;3.07;2.50;;;;;;;20.38;66.96;101083.50;4947321;28;20438;-65
2022/10/27 06:52:18;;;;;;;2.70;2.00;;;;;;;20.40;66.36;101095.41;4951323;28;20191;-65
2022/10/27 06:54:44;;;;;;;3.43;2.30;;;;;;;20.39;66.81;101090.91;4954941;28;20214;-65
2022/10/27 06:57:09;;;;;;;4.37;2.13;;;;;;;20.39;66.33;101088.88;4963436;28;20187;-65
2022/10/27 06:59:35;;;;;;;3.30;2.50;;;;;;;20.40;66.65;101107.75;4956031;28;20183;-66
2022/10/27 07:02:02;;;;;;;4.23;2.13;;;;;;;20.38;66.66;101104.44;4963455;28;20187;-65
2022/10/27 07:04:27;;;;;;;3.17;2.10;;;;;;;20.39;66.74;101106.09;4953932;28;20234;-65
2022/10/27 07:06:53;;;;;;;2.77;2.10;;;;;;;20.38;66.83;101104.44;4936036;29;20478;-65
2022/10/27 07:09:18;;;;;;;4.10;2.53;;;;;;;20.38;66.72;101100.72;4953155;28;20592;-65
2022/10/27 07:11:43;;;;;;;3.83;2.47;;;;;;;20.41;66.42;101100.78;4938854;28;20182;-66
2022/10/27 07:14:09;;;;;;;3.20;2.40;;;;;;;20.40;66.71;101107.75;4932447;28;20576;-65
2022/10/27 07:16:34;;;;;;;3.60;2.50;;;;;;;20.39;66.79;101123.28;4969663;28;20235;-65
2022/10/27 07:19:00;;;;;;;3.83;2.30;;;;;;;20.39;66.71;101131.06;4956259;28;20190;-65
2022/10/27 07:21:26;;;;;;;3.43;2.00;;;;;;;20.38;66.65;101124.50;4960789;28;20549;-65
2022/10/27 07:23:52;;;;;;;3.10;2.20;;;;;;;20.37;66.85;101122.81;4957138;28;20194;-65
2022/10/27 07:26:17;;;;;;;3.83;2.23;;;;;;;20.41;66.56;101120.88;4945721;28;20876;-65
2022/10/27 07:28:43;;;;;;;3.30;2.40;;;;;;;20.40;66.53;101130.69;4959677;28;20202;-65
2022/10/27 07:31:08;;;;;;;3.17;2.53;;;;;;;20.40;66.58;101133.56;4948481;28;20253;-65
2022/10/27 07:33:33;;;;;;;5.33;2.90;;;;;;;20.39;66.73;101125.31;4956270;28;20233;-66
2022/10/27 07:35:59;;;;;;;3.27;2.10;;;;;;;20.38;66.61;101130.25;4958672;28;20222;-65
2022/10/27 07:38:24;;;;;;;3.63;2.20;;;;;;;20.41;66.69;101129.47;4964302;28;20187;-65
2022/10/27 07:40:50;;;;;;;3.40;2.30;;;;;;;20.39;66.87;101134.75;4961228;28;20531;-65
2022/10/27 07:43:15;;;;;;;3.03;2.40;;;;;;;20.38;67.00;101132.25;4952508;28;20209;-66
2022/10/27 07:45:41;;;;;;;2.87;2.10;;;;;;;20.37;66.86;101142.88;4961754;28;20317;-65
2022/10/27 07:48:10;;;;;;;4.10;2.23;;;;;;;20.39;66.63;101137.63;4950380;28;20186;-66
2022/10/27 07:50:35;;;;;;;3.70;2.30;;;;;;;20.39;66.52;101142.53;4959933;28;20187;-65
2022/10/27 07:53:01;;;;;;;3.30;2.40;;;;;;;20.38;66.89;101138.84;4945551;28;20441;-65
2022/10/27 07:55:27;;;;;;;3.30;2.20;;;;;;;20.39;66.95;101136.78;4957734;28;20206;-66
2022/10/27 07:58:12;;;;;;;3.90;2.30;;;;;;;20.38;66.58;101133.09;4934820;28;20988;-65
2022/10/27 08:00:39;;;;;;;3.67;2.20;;;;;;;20.41;66.80;101137.25;4954667;28;20792;-65
2022/10/27 08:03:06;;;;;;;3.97;2.43;;;;;;;20.40;66.86;101136.41;4942024;28;20426;-65
2022/10/27 08:05:32;;;;;;;3.37;1.97;;;;;;;20.42;66.67;101127.44;4950916;28;20491;-65
2022/10/27 08:08:05;;;;;;;4.07;2.90;;;;;;;20.38;66.90;101130.25;4942527;28;20484;-65
2022/10/27 08:10:31;;;;;;;3.77;2.23;;;;;;;20.40;66.61;101133.56;4957765;28;21001;-65
2022/10/27 08:12:56;;;;;;;3.57;2.07;;;;;;;20.40;66.58;101138.44;4961790;28;20478;-66
2022/10/27 08:15:22;;;;;;;3.00;2.20;;;;;;;20.41;66.61;101152.41;4946677;28;20935;-65
2022/10/27 08:17:56;;;;;;;3.43;2.27;;;;;;;20.43;66.37;101152.06;4944500;28;20179;-65
2022/10/27 08:20:22;;;;;;;3.37;2.13;;;;;;;20.41;66.42;101154.47;4928808;28;20177;-66
2022/10/27 08:22:55;;;;;;;2.80;2.10;;;;;;;20.41;66.49;101166.75;4948844;28;20429;-65
2022/10/27 08:25:20;;;;;;;3.00;2.13;;;;;;;20.41;66.53;101154.47;4958743;28;20467;-65
2022/10/27 08:27:46;;;;;;;3.47;2.10;;;;;;;20.41;66.72;101155.28;4940481;28;20843;-66
2022/10/27 08:30:11;;;;;;;2.73;2.13;;;;;;;20.42;66.68;101151.22;4956550;28;20183;-65
2022/10/27 08:32:36;;;;;;;2.83;2.20;;;;;;;20.44;66.21;101145.94;4959563;28;20183;-65
2022/10/27 08:35:02;;;;;;;3.23;2.70;;;;;;;20.41;66.67;101143.00;4957197;28;20972;-65
2022/10/27 08:37:27;;;;;;;3.40;2.37;;;;;;;20.40;66.64;101138.44;4940395;28;20866;-65
2022/10/27 08:39:53;;;;;;;3.17;2.17;;;;;;;20.43;66.55;101143.44;4945260;28;20563;-65
2022/10/27 08:42:29;;;;;;;2.77;2.10;;;;;;;20.42;66.51;101148.34;4958216;28;20887;-65
2022/10/27 08:44:57;;;;;;;3.37;2.10;;;;;;;20.43;66.73;101150.03;4955965;28;20190;-65
2022/10/27 08:47:25;;;;;;;2.80;2.03;;;;;;;20.43;66.65;101141.41;4942021;28;20418;-65
2022/10/27 08:50:02;;;;;;;2.63;2.00;;;;;;;20.41;66.69;101149.56;4957278;28;20451;-65
2022/10/27 08:52:55;;;;;;;3.30;2.10;;;;;;;20.44;66.86;101159.44;4948891;28;20485;-65
2022/10/27 08:55:47;;;;;;;3.37;2.30;;;;;;;20.43;66.63;101158.63;4958652;28;20450;-65
2022/10/27 08:58:16;;;;;;;3.27;2.40;;;;;;;20.43;66.74;101161.50;4947266;28;20423;-65
2022/10/27 09:01:21;;;;;;;3.50;2.50;;;;;;;20.46;66.55;101157.06;4932641;28;21044;-66
2022/10/27 09:03:57;;;;;;;3.07;2.20;;;;;;;20.47;66.52;101155.84;4888513;28;20945;-66
2022/10/27 09:06:25;;;;;;;2.23;1.73;;;;;;;20.45;66.54;101153.34;4939132;28;21402;-65
2022/10/27 09:09:16;;;;;;;3.03;1.97;;;;;;;20.47;66.60;101152.97;4950255;28;21257;-65
2022/10/27 09:11:59;;;;;;;2.70;2.00;;;;;;;20.45;66.42;101146.75;4947401;28;20430;-65
2022/10/27 09:14:39;;;;;;;3.17;2.27;;;;;;;20.45;66.50;101152.50;4956610;28;20459;-65
2022/10/27 09:17:16;;;;;;;3.10;2.10;;;;;;;20.46;66.39;101151.31;4941717;28;20437;-65
2022/10/27 09:19:51;;;;;;;2.70;1.80;;;;;;;20.47;66.53;101156.66;4946122;28;20910;-66
2022/10/27 09:22:17;;;;;;;2.87;2.10;;;;;;;20.49;66.61;101147.69;4948707;28;20456;-66
2022/10/27 09:24:43;;;;;;;2.53;1.83;;;;;;;20.49;66.39;101141.94;4954032;28;20422;-66
2022/10/27 09:27:11;;;;;;;2.93;2.33;;;;;;;20.48;66.45;101144.00;4955650;28;20878;-66
2022/10/27 09:29:36;;;;;;;2.57;1.80;;;;;;;20.50;66.10;101138.72;4947527;28;20199;-65
2022/10/27 09:32:15;;;;;;;4.37;2.20;;;;;;;20.49;66.65;101142.78;4939678;28;20478;-66
2022/10/27 09:34:44;;;;;;;2.90;2.00;;;;;;;20.49;66.67;101145.66;4940257;28;20210;-65
2022/10/27 09:37:16;;;;;;;2.30;1.67;;;;;;;20.49;66.28;101147.69;4940126;28;20421;-65
2022/10/27 09:39:49;;;;;;;2.70;1.70;;;;;;;20.50;66.59;101144.44;4923987;28;20448;-65
2022/10/27 09:42:15;;;;;;;2.73;2.07;;;;;;;20.50;66.55;101153.06;4943192;28;20431;-66
2022/10/27 09:44:43;;;;;;;2.53;1.90;;;;;;;20.50;66.65;101144.44;4938068;28;20459;-66
2022/10/27 09:47:09;;;;;;;3.97;2.13;;;;;;;20.52;66.34;101141.22;4956311;28;20233;-65
2022/10/27 09:49:36;;;;;;;3.00;2.20;;;;;;;20.50;66.36;101135.84;4956765;28;20438;-65
2022/10/27 09:52:14;;;;;;;3.20;2.30;;;;;;;20.51;66.24;101130.91;4954850;28;20175;-65
2022/10/27 09:54:41;;;;;;;2.93;1.87;;;;;;;20.48;66.67;101132.53;4947918;28;21180;-66
2022/10/27 09:57:15;;;;;;;2.90;2.00;;;;;;;20.50;66.65;101124.38;4945920;28;20513;-65
2022/10/27 09:59:41;;;;;;;2.53;1.87;;;;;;;20.50;66.33;101112.88;4954467;28;20417;-65
2022/10/27 10:02:32;;;;;;;2.90;2.30;;;;;;;20.54;66.28;101128.16;4954597;28;21119;-66
2022/10/27 10:04:58;;;;;;;2.40;1.83;;;;;;;20.53;66.46;101125.66;4946985;28;20207;-65
2022/10/27 10:07:36;;;;;;;2.87;2.00;;;;;;;20.54;66.36;101128.16;4939297;28;20858;-66
2022/10/27 10:10:05;;;;;;;2.70;1.97;;;;;;;20.56;66.46;101131.47;4955147;28;20217;-65
2022/10/27 10:12:31;;;;;;;2.97;1.97;;;;;;;20.54;66.36;101125.28;4955451;28;20477;-65
2022/10/27 10:15:11;;;;;;;2.93;2.00;;;;;;;20.55;66.15;101126.94;4939744;28;21419;-65
2022/10/27 10:17:59;;;;;;;3.30;2.27;;;;;;;20.56;66.36;101122.00;4956396;28;21148;-65
2022/10/27 10:20:41;;;;;;;2.43;1.53;;;;;;;20.53;66.43;101129.34;4939790;28;20492;-65
2022/10/27 10:23:21;;;;;;;2.40;1.60;;;;;;;20.54;65.92;101118.69;4936687;28;20905;-65
2022/10/27 10:25:48;;;;;;;3.33;2.53;;;;;;;20.57;66.51;101124.50;4921289;28;20438;-65
2022/10/27 10:28:39;;;;;;;2.40;1.50;;;;;;;20.56;66.39;101122.84;4937596;28;20434;-65
2022/10/27 10:31:07;;;;;;;3.43;1.70;;;;;;;20.54;66.33;101112.97;4923606;28;20422;-65
2022/10/27 10:33:36;;;;;;;4.30;2.20;;;;;;;20.56;66.77;101110.53;4954481;28;20430;-65
2022/10/27 10:36:16;;;;;;;2.40;1.70;;;;;;;20.56;66.31;101114.25;4954086;28;20968;-65
2022/10/27 10:38:41;;;;;;;2.80;1.90;;;;;;;20.57;66.36;101103.63;4955406;28;20429;-66
2022/10/27 10:41:10;;;;;;;2.37;1.80;;;;;;;20.59;66.29;101102.03;4922002;28;20511;-65
2022/10/27 10:43:36;;;;;;;2.60;1.87;;;;;;;20.59;66.38;101104.91;4938726;28;20191;-65
2022/10/27 10:46:01;;;;;;;3.70;1.77;;;;;;;20.57;66.78;101097.88;4940706;28;20438;-66
2022/10/27 10:48:39;;;;;;;2.53;2.10;;;;;;;20.58;66.49;101091.75;4952410;28;20187;-66
2022/10/27 10:51:05;;;;;;;2.70;1.67;;;;;;;20.58;65.94;101091.75;4956933;28;20174;-65
2022/10/27 10:53:33;;;;;;;2.40;1.60;;;;;;;20.60;66.11;101088.50;4954656;28;21324;-66
2022/10/27 10:56:01;;;;;;;2.33;1.77;;;;;;;20.61;66.43;101079.53;4952366;28;20454;-66
2022/10/27 10:58:26;;;;;;;2.47;1.90;;;;;;;20.62;66.40;101068.91;4938124;28;20501;-66
2022/10/27 11:00:56;;;;;;;2.50;1.50;;;;;;;20.61;66.14;101058.59;4953380;28;20434;-65
2022/10/27 11:03:22;;;;;;;2.83;1.80;;;;;;;20.62;66.40;101055.38;4935910;28;20181;-65
2022/10/27 11:06:01;;;;;;;2.87;2.07;;;;;;;20.63;66.65;101056.22;4942460;28;20426;-65
2022/10/27 11:08:50;;;;;;;2.23;1.43;;;;;;;20.62;66.20;101049.63;4953689;28;20238;-65
2022/10/27 11:11:18;;;;;;;2.80;1.73;;;;;;;20.63;66.22;101059.88;4939874;28;20563;-66
2022/10/27 11:13:48;;;;;;;2.67;1.87;;;;;;;20.64;66.37;101055.00;4951964;28;20430;-66
2022/10/27 11:16:13;;;;;;;2.53;1.60;;;;;;;20.64;65.97;101055.84;4925932;28;20439;-65
2022/10/27 11:19:00;;;;;;;2.60;1.93;;;;;;;20.64;66.37;101052.13;4956334;28;20500;-66
2022/10/27 11:21:35;;;;;;;2.90;1.87;;;;;;;20.66;65.98;101053.41;4957201;28;20205;-65
2022/10/27 11:24:21;;;;;;;2.43;1.60;;;;;;;20.66;66.13;101047.66;4957572;28;20440;-66
2022/10/27 11:27:05;;;;;;;2.97;2.00;;;;;;;20.70;66.43;101037.09;4953619;28;20433;-65
2022/10/27 11:29:49;;;;;;;2.77;2.00;;;;;;;20.69;65.94;101029.72;4956720;28;20545;-65
2022/10/27 11:32:20;;;;;;;2.57;1.80;;;;;;;20.70;66.07;101034.22;4954177;28;21363;-65